Time;durP1;ratioP1;P1;durP2;ratioP2;P2;SDS_P1;SDS_P2;PMS_P1;PMS_P2;Temp;Humidity;BMP_temperature;BMP_pressure;BME280_temperature;BME280_humidity;BME280_pressure;Samples;Min_cycle;Max_cycle;Signal;HPM_P1;HPM_P2
2021/12/08 00:01:07;;;;;;;35.60;21.35;;;;;;;-2.74;87.46;99072.59;4974764;28;20072;-84
2021/12/08 00:03:35;;;;;;;32.17;18.73;;;;;;;-2.84;87.58;99085.97;4992419;28;20093;-84
2021/12/08 00:06:02;;;;;;;34.45;21.73;;;;;;;-2.86;87.29;99095.00;4992040;28;20050;-84
2021/12/08 00:08:32;;;;;;;37.35;21.55;;;;;;;-2.95;87.24;99082.75;4974935;28;20132;-83
2021/12/08 00:13:31;;;;;;;35.10;21.10;;;;;;;-3.06;87.00;99087.31;4992216;28;20055;-84
2021/12/08 00:16:03;;;;;;;34.05;21.40;;;;;;;-3.09;87.02;99100.81;4975037;28;20054;-82
2021/12/08 00:18:32;;;;;;;29.45;17.20;;;;;;;-3.13;87.02;99094.19;4974626;28;20573;-85
2021/12/08 00:21:07;;;;;;;28.98;16.35;;;;;;;-3.13;87.04;99086.25;4991831;28;20058;-83
2021/12/08 00:23:34;;;;;;;35.28;20.70;;;;;;;-3.18;86.76;99072.69;4990881;28;20477;-84
2021/12/08 00:26:05;;;;;;;31.65;18.80;;;;;;;-3.19;86.70;99081.63;4974762;28;20042;-84
2021/12/08 00:28:35;;;;;;;36.15;22.27;;;;;;;-3.14;86.69;99092.53;4993304;28;20050;-84
2021/12/08 00:31:04;;;;;;;33.25;19.38;;;;;;;-3.09;86.90;99084.13;4992864;28;20046;-83
2021/12/08 00:33:32;;;;;;;34.70;21.55;;;;;;;-3.08;86.90;99078.69;4994099;28;20050;-83
2021/12/08 00:36:02;;;;;;;33.97;21.65;;;;;;;-3.07;87.08;99087.44;4993568;28;20109;-82
2021/12/08 00:38:33;;;;;;;33.35;20.77;;;;;;;-3.12;86.89;99079.97;4992493;28;20057;-83
2021/12/08 00:41:03;;;;;;;32.35;21.02;;;;;;;-3.16;86.72;99093.69;4992022;28;20046;-84
2021/12/08 00:43:30;;;;;;;31.67;18.83;;;;;;;-3.07;86.80;99090.09;4992097;28;20046;-82
2021/12/08 00:45:57;;;;;;;32.00;19.52;;;;;;;-3.08;86.62;99104.28;4991996;28;20096;-84
2021/12/08 00:48:30;;;;;;;31.63;20.30;;;;;;;-3.13;86.24;99099.47;4982016;28;20054;-83
2021/12/08 00:50:58;;;;;;;35.58;20.50;;;;;;;-3.09;86.21;99106.09;4989787;28;20046;-83
2021/12/08 00:53:25;;;;;;;31.48;19.20;;;;;;;-3.17;86.07;99118.41;4993096;28;20604;-84
2021/12/08 00:55:52;;;;;;;35.25;21.73;;;;;;;-3.20;86.08;99124.00;4974256;28;20046;-83
2021/12/08 00:58:20;;;;;;;32.60;20.40;;;;;;;-3.24;86.21;99114.72;4991631;28;20049;-81
2021/12/08 01:00:50;;;;;;;37.08;21.67;;;;;;;-3.21;86.07;99125.81;4991768;28;20281;-83
2021/12/08 01:03:18;;;;;;;37.30;21.90;;;;;;;-3.27;86.25;99129.91;4991432;28;20054;-83
2021/12/08 01:05:53;;;;;;;33.45;19.98;;;;;;;-3.23;86.55;99125.13;4991713;28;20050;-83
2021/12/08 01:08:22;;;;;;;31.42;19.00;;;;;;;-3.22;86.05;99128.59;4991729;28;20054;-84
2021/12/08 01:10:52;;;;;;;36.38;22.67;;;;;;;-3.25;86.16;99129.72;4991623;28;20050;-83
2021/12/08 01:13:19;;;;;;;34.67;20.23;;;;;;;-3.22;86.05;99126.78;4991214;28;20057;-83
2021/12/08 01:15:51;;;;;;;34.53;20.00;;;;;;;-3.25;85.91;99127.09;4974958;28;20149;-83
2021/12/08 01:18:19;;;;;;;32.10;19.70;;;;;;;-3.30;85.46;99121.44;4991350;28;20496;-83
2021/12/08 01:20:47;;;;;;;35.92;19.63;;;;;;;-3.40;85.35;99118.88;4991749;28;20514;-83
2021/12/08 01:23:15;;;;;;;35.33;22.35;;;;;;;-3.36;85.49;99136.06;4994121;28;20050;-83
2021/12/08 01:25:42;;;;;;;35.25;20.52;;;;;;;-3.40;85.41;99126.78;4995980;28;20112;-83
2021/12/08 01:28:10;;;;;;;40.67;23.02;;;;;;;-3.43;85.77;99113.09;4994819;28;20054;-83
2021/12/08 01:30:37;;;;;;;37.50;21.75;;;;;;;-3.44;85.69;99114.06;4993601;28;20171;-83
2021/12/08 01:33:05;;;;;;;38.58;22.65;;;;;;;-3.50;85.44;99111.03;4994880;28;20046;-83
2021/12/08 01:35:32;;;;;;;36.15;21.38;;;;;;;-3.51;85.58;99138.41;4996023;28;20101;-84
2021/12/08 01:37:59;;;;;;;37.42;24.30;;;;;;;-3.46;85.88;99140.59;4994519;28;20142;-84
2021/12/08 01:40:29;;;;;;;40.25;24.17;;;;;;;-3.42;86.01;99130.56;4995233;28;20536;-84
2021/12/08 01:42:58;;;;;;;36.83;21.60;;;;;;;-3.44;85.71;99133.38;4977486;28;20101;-85
2021/12/08 01:48:18;;;;;;;37.75;22.75;;;;;;;-3.38;85.98;99137.22;4994595;28;20074;-84
2021/12/08 01:50:53;;;;;;;40.80;22.88;;;;;;;-3.44;85.98;99129.88;4994800;28;20129;-83
2021/12/08 01:53:22;;;;;;;37.72;22.17;;;;;;;-3.42;85.97;99136.66;4977482;28;20047;-84
2021/12/08 01:55:52;;;;;;;37.88;21.05;;;;;;;-3.49;85.96;99136.47;4977531;28;20053;-84
2021/12/08 01:58:20;;;;;;;36.17;19.98;;;;;;;-3.48;85.61;99155.75;4994591;28;20398;-83
2021/12/08 02:01:01;;;;;;;38.03;22.70;;;;;;;-3.45;85.71;99146.72;4994509;28;20054;-84
2021/12/08 02:03:30;;;;;;;37.80;22.10;;;;;;;-3.47;85.84;99143.38;4977345;28;20057;-83
2021/12/08 02:05:58;;;;;;;37.70;23.23;;;;;;;-3.46;85.59;99147.69;4994152;28;20513;-83
2021/12/08 02:08:26;;;;;;;35.33;20.77;;;;;;;-3.54;85.48;99154.56;4977583;28;20046;-83
2021/12/08 02:10:54;;;;;;;36.03;22.02;;;;;;;-3.64;85.30;99148.53;4993138;28;20076;-83
2021/12/08 02:13:24;;;;;;;34.95;20.50;;;;;;;-3.62;85.28;99159.75;4994235;28;20065;-84
2021/12/08 02:15:55;;;;;;;36.42;22.23;;;;;;;-3.61;85.24;99156.13;4994322;28;20442;-83
2021/12/08 02:18:22;;;;;;;36.28;21.10;;;;;;;-3.59;85.21;99162.09;4976834;28;20394;-82
2021/12/08 02:20:52;;;;;;;36.95;22.05;;;;;;;-3.58;85.44;99166.38;4994511;28;20054;-84
2021/12/08 02:23:19;;;;;;;35.55;22.45;;;;;;;-3.59;85.14;99167.38;4995243;28;20092;-82
2021/12/08 02:25:54;;;;;;;39.10;22.67;;;;;;;-3.66;85.31;99176.84;5003943;28;20054;-83
2021/12/08 02:28:26;;;;;;;36.17;21.13;;;;;;;-3.72;84.87;99177.47;4998292;28;20078;-81
2021/12/08 02:31:01;;;;;;;34.25;19.92;;;;;;;-3.83;84.87;99162.66;4993736;28;20133;-82
2021/12/08 02:47:52;;;;;;;36.03;20.23;;;;;;;-4.07;85.18;99168.50;4993720;28;20050;-83
2021/12/08 02:50:29;;;;;;;36.88;21.90;;;;;;;-3.93;84.77;99198.81;4976120;28;20042;-83
2021/12/08 02:53:00;;;;;;;39.83;22.52;;;;;;;-3.89;84.81;99187.00;4993905;28;20057;-83
2021/12/08 02:55:28;;;;;;;38.85;22.38;;;;;;;-3.84;85.01;99183.91;4993450;28;20113;-83
2021/12/08 02:58:00;;;;;;;35.55;21.05;;;;;;;-3.92;84.93;99190.75;4960410;28;20054;-83
2021/12/08 03:00:32;;;;;;;31.20;18.17;;;;;;;-3.98;84.81;99199.25;4993455;28;20729;-83
2021/12/08 03:03:00;;;;;;;34.60;20.35;;;;;;;-4.04;84.50;99197.19;4993418;28;20096;-83
2021/12/08 03:05:28;;;;;;;36.78;22.30;;;;;;;-4.10;84.53;99194.31;4993529;28;20042;-83
2021/12/08 03:07:57;;;;;;;38.08;20.48;;;;;;;-4.10;84.62;99195.16;4976206;28;20457;-82
2021/12/08 03:10:28;;;;;;;41.22;23.67;;;;;;;-4.09;84.59;99202.09;4994222;28;20103;-82
2021/12/08 03:12:57;;;;;;;40.65;24.25;;;;;;;-4.07;84.82;99208.03;4993221;28;20050;-84
2021/12/08 03:15:25;;;;;;;35.17;18.20;;;;;;;-4.09;84.67;99217.06;4993255;28;20053;-83
2021/12/08 03:17:58;;;;;;;39.22;21.83;;;;;;;-4.17;84.95;99204.63;4994427;28;20412;-83
2021/12/08 03:20:38;;;;;;;41.50;25.23;;;;;;;-4.12;84.75;99201.56;4977685;28;20072;-84
2021/12/08 03:23:07;;;;;;;40.80;23.23;;;;;;;-4.20;84.95;99200.47;4992683;28;20058;-84
2021/12/08 03:25:54;;;;;;;47.45;26.35;;;;;;;-4.15;84.89;99200.88;4993185;28;20054;-83
2021/12/08 03:28:27;;;;;;;38.85;21.60;;;;;;;-4.11;84.89;99213.75;4993205;28;20444;-84
2021/12/08 03:31:04;;;;;;;33.00;18.45;;;;;;;-4.17;84.69;99220.44;4992269;28;20056;-85
2021/12/08 03:33:32;;;;;;;39.55;21.35;;;;;;;-4.34;84.38;99213.28;4993060;28;20053;-84
2021/12/08 03:36:08;;;;;;;37.58;21.35;;;;;;;-4.37;84.43;99233.69;4993094;28;20105;-83
2021/12/08 03:38:36;;;;;;;37.38;18.80;;;;;;;-4.45;84.07;99230.94;4992774;28;20132;-83
2021/12/08 03:41:08;;;;;;;37.08;22.38;;;;;;;-4.52;84.47;99221.94;4992652;28;20141;-84
2021/12/08 03:43:35;;;;;;;43.30;23.83;;;;;;;-4.48;84.63;99233.84;4993120;28;20057;-84
2021/12/08 03:46:04;;;;;;;39.03;23.25;;;;;;;-4.47;84.48;99226.78;4992120;28;20057;-83
2021/12/08 03:48:44;;;;;;;34.95;20.80;;;;;;;-4.44;84.61;99229.13;4975709;28;20571;-85
2021/12/08 03:51:19;;;;;;;39.53;23.60;;;;;;;-4.48;84.33;99235.63;4992524;28;20051;-83
2021/12/08 03:53:46;;;;;;;40.30;23.52;;;;;;;-4.45;84.55;99245.91;4992621;28;20409;-84
2021/12/08 03:56:17;;;;;;;42.50;23.10;;;;;;;-4.50;84.31;99241.06;4994074;28;20057;-84
2021/12/08 03:58:50;;;;;;;38.50;22.08;;;;;;;-4.53;84.10;99244.00;4996789;28;20054;-84
2021/12/08 04:01:17;;;;;;;34.35;20.75;;;;;;;-4.55;83.96;99239.84;4978438;28;20109;-83
2021/12/08 04:03:50;;;;;;;36.28;21.20;;;;;;;-4.56;83.97;99246.88;5001319;28;20056;-84
2021/12/08 04:06:29;;;;;;;39.67;21.50;;;;;;;-4.64;84.05;99238.88;4993480;28;20461;-83
2021/12/08 04:09:05;;;;;;;39.50;22.52;;;;;;;-4.64;84.04;99242.31;4995727;28;20105;-84
2021/12/08 04:11:33;;;;;;;44.63;20.88;;;;;;;-4.72;83.72;99239.56;4994103;28;20046;-84
2021/12/08 04:14:09;;;;;;;40.83;21.25;;;;;;;-4.62;83.83;99265.91;4993343;28;20073;-84
2021/12/08 04:16:46;;;;;;;32.05;19.10;;;;;;;-4.65;83.85;99258.28;4976205;28;20043;-85
2021/12/08 04:19:15;;;;;;;37.22;21.23;;;;;;;-4.68;83.84;99264.66;4991784;28;20051;-82
2021/12/08 04:21:47;;;;;;;41.65;21.92;;;;;;;-4.73;83.69;99273.97;4975102;28;20043;-84
2021/12/08 04:24:17;;;;;;;41.75;23.20;;;;;;;-4.75;83.60;99274.09;4991806;28;20136;-83
2021/12/08 04:27:07;;;;;;;38.58;21.35;;;;;;;-4.83;83.40;99269.53;4991643;28;20125;-83
2021/12/08 04:29:40;;;;;;;44.20;22.55;;;;;;;-4.85;83.70;99275.91;4991621;28;20088;-84
2021/12/08 04:32:10;;;;;;;42.70;23.92;;;;;;;-4.85;83.78;99284.63;4991355;28;20137;-83
2021/12/08 04:34:39;;;;;;;43.47;23.55;;;;;;;-4.84;83.82;99294.19;4991804;28;20050;-83
2021/12/08 04:37:24;;;;;;;42.55;24.25;;;;;;;-4.84;84.01;99286.28;4991511;28;20046;-84
2021/12/08 04:40:12;;;;;;;41.25;21.45;;;;;;;-4.85;84.10;99274.09;4991995;28;20050;-83
2021/12/08 04:45:28;;;;;;;44.10;25.45;;;;;;;-5.08;83.83;99293.78;4974378;28;20444;-84
2021/12/08 04:48:25;;;;;;;41.88;22.88;;;;;;;-5.24;84.25;99292.53;4992021;28;20054;-84
2021/12/08 04:51:16;;;;;;;43.00;23.17;;;;;;;-5.23;84.26;99311.75;4992182;28;20077;-84
2021/12/08 05:00:13;;;;;;;47.50;24.85;;;;;;;-5.26;84.61;99310.25;4992158;28;20105;-84
2021/12/08 05:07:54;;;;;;;48.17;23.90;;;;;;;-5.01;85.26;99322.03;4977768;28;20140;-84
2021/12/08 05:10:30;;;;;;;47.90;24.50;;;;;;;-4.98;85.15;99304.31;4995770;28;20077;-83
2021/12/08 05:13:05;;;;;;;44.65;24.98;;;;;;;-5.06;84.98;99321.63;4945403;28;20062;-85
2021/12/08 05:15:37;;;;;;;46.00;25.80;;;;;;;-5.24;84.94;99320.63;4942987;28;20051;-84
2021/12/08 05:18:21;;;;;;;45.35;24.50;;;;;;;-5.28;84.77;99335.84;4975745;28;20050;-83
2021/12/08 05:21:05;;;;;;;50.83;26.77;;;;;;;-5.36;85.02;99337.50;4976141;28;20074;-84
2021/12/08 05:23:41;;;;;;;47.08;23.98;;;;;;;-5.40;85.14;99336.94;4958633;28;20458;-85
2021/12/08 05:26:32;;;;;;;48.28;24.77;;;;;;;-5.35;85.35;99344.41;4975772;28;20062;-85
2021/12/08 05:29:11;;;;;;;51.53;25.65;;;;;;;-5.42;85.37;99328.31;4958460;28;20524;-84
2021/12/08 05:31:40;;;;;;;46.28;23.58;;;;;;;-5.25;85.38;99354.00;4942395;28;20066;-83
2021/12/08 05:34:10;;;;;;;47.92;24.05;;;;;;;-5.31;84.93;99357.19;4942478;28;20053;-84
2021/12/08 05:36:41;;;;;;;47.45;25.00;;;;;;;-5.39;84.97;99361.44;4976254;28;20121;-84
2021/12/08 05:39:20;;;;;;;48.95;23.08;;;;;;;-5.54;85.26;99351.28;4968801;28;20497;-83
2021/12/08 05:41:54;;;;;;;44.10;23.17;;;;;;;-5.46;84.91;99361.97;4947673;28;20634;-85
2021/12/08 05:44:27;;;;;;;51.15;24.58;;;;;;;-5.52;85.00;99364.28;4975455;28;20105;-83
2021/12/08 05:46:57;;;;;;;46.08;22.75;;;;;;;-5.61;84.78;99351.97;4975013;28;20395;-84
2021/12/08 05:49:25;;;;;;;47.22;24.10;;;;;;;-5.67;84.48;99354.16;4957889;28;20130;-84
2021/12/08 05:51:53;;;;;;;47.30;23.08;;;;;;;-5.75;83.58;99358.38;4958275;28;20538;-84
2021/12/08 05:54:31;;;;;;;46.65;22.50;;;;;;;-5.99;82.95;99345.59;4974639;28;20074;-83
2021/12/08 05:57:13;;;;;;;45.97;21.15;;;;;;;-5.97;83.07;99369.97;4974963;28;20536;-83
2021/12/08 05:59:49;;;;;;;46.30;22.33;;;;;;;-6.04;82.92;99374.88;4975154;28;20061;-84
2021/12/08 06:02:25;;;;;;;53.38;23.33;;;;;;;-6.17;82.99;99379.53;4974799;28;20101;-83
2021/12/08 06:04:55;;;;;;;48.45;20.65;;;;;;;-6.27;83.29;99383.88;4942513;28;20058;-85
2021/12/08 06:07:23;;;;;;;47.90;20.58;;;;;;;-6.26;82.88;99382.91;4974779;28;20181;-84
2021/12/08 06:10:05;;;;;;;49.63;22.98;;;;;;;-6.30;83.00;99386.72;4978516;28;20525;-84
2021/12/08 06:12:32;;;;;;;55.95;23.65;;;;;;;-6.25;82.69;99393.28;4911258;28;20046;-81
2021/12/08 06:14:59;;;;;;;44.78;21.02;;;;;;;-6.28;82.68;99388.28;4992668;28;20165;-84
2021/12/08 06:17:30;;;;;;;50.83;23.55;;;;;;;-6.22;82.58;99400.09;4993650;28;20043;-83
2021/12/08 06:20:02;;;;;;;41.33;19.23;;;;;;;-6.21;82.58;99394.69;4994292;28;20084;-84
2021/12/08 06:22:33;;;;;;;53.33;23.50;;;;;;;-6.21;82.21;99404.38;4994388;28;20065;-84
2021/12/08 06:25:00;;;;;;;42.03;20.02;;;;;;;-6.10;81.79;99406.94;4994015;28;20583;-84
2021/12/08 06:27:30;;;;;;;47.92;22.75;;;;;;;-6.06;81.66;99397.81;5008783;28;20568;-84
2021/12/08 06:30:00;;;;;;;48.10;23.27;;;;;;;-6.05;81.40;99390.78;4993470;28;20465;-84
2021/12/08 06:32:32;;;;;;;46.10;20.73;;;;;;;-6.03;81.49;99397.56;4992876;28;20089;-84
2021/12/08 06:35:06;;;;;;;46.95;22.30;;;;;;;-6.00;81.12;99409.63;4994143;28;20051;-84
2021/12/08 06:37:38;;;;;;;46.38;19.48;;;;;;;-5.97;81.30;99406.75;4994112;28;20490;-84
2021/12/08 06:40:35;;;;;;;42.20;19.10;;;;;;;-5.88;81.20;99417.25;4992420;28;20062;-84
2021/12/08 06:43:05;;;;;;;46.92;21.88;;;;;;;-5.87;81.41;99418.13;4952694;29;20137;-84
2021/12/08 06:45:43;;;;;;;51.58;23.90;;;;;;;-5.90;81.42;99415.72;4952979;29;20051;-83
2021/12/08 06:48:15;;;;;;;47.00;22.08;;;;;;;-5.85;81.44;99420.59;4934621;29;20107;-82
2021/12/08 06:50:58;;;;;;;52.10;23.65;;;;;;;-5.85;81.08;99426.69;4951597;29;20490;-84
2021/12/08 06:53:28;;;;;;;53.70;22.98;;;;;;;-5.96;80.99;99430.25;4951045;29;20146;-84
2021/12/08 06:56:05;;;;;;;45.17;19.50;;;;;;;-5.93;80.64;99437.03;4937455;29;20054;-83
2021/12/08 06:58:37;;;;;;;46.63;18.17;;;;;;;-6.05;80.73;99435.44;4952636;29;20055;-82
2021/12/08 07:04:07;;;;;;;55.83;24.15;;;;;;;-6.16;80.79;99442.44;4944830;29;20058;-83
2021/12/08 07:06:59;;;;;;;54.22;22.05;;;;;;;-6.13;80.85;99460.59;4933853;29;20102;-86
2021/12/08 07:09:41;;;;;;;49.35;19.90;;;;;;;-6.21;80.97;99464.78;4928006;29;20143;-83
2021/12/08 07:12:21;;;;;;;52.25;21.98;;;;;;;-6.24;81.19;99452.75;4916842;29;20043;-85
2021/12/08 07:14:56;;;;;;;47.88;22.02;;;;;;;-6.26;81.07;99453.84;4947923;29;20146;-85
2021/12/08 07:17:27;;;;;;;45.45;19.52;;;;;;;-6.26;80.96;99457.28;4957593;29;20751;-86
2021/12/08 07:20:15;;;;;;;49.08;21.95;;;;;;;-6.24;81.01;99476.38;4960462;28;20046;-83
2021/12/08 07:22:47;;;;;;;47.72;20.90;;;;;;;-6.23;81.30;99462.28;4975800;28;20082;-84
2021/12/08 07:25:18;;;;;;;46.25;20.92;;;;;;;-6.22;81.44;99466.59;4983646;28;20199;-83
2021/12/08 07:27:46;;;;;;;45.15;19.23;;;;;;;-6.17;81.34;99458.34;4988359;28;20073;-84
2021/12/08 07:30:30;;;;;;;48.33;21.83;;;;;;;-6.16;80.91;99460.00;4988104;28;20421;-82
2021/12/08 07:33:04;;;;;;;45.10;18.48;;;;;;;-6.16;81.15;99458.19;4988855;28;20058;-84
2021/12/08 07:35:42;;;;;;;46.45;18.33;;;;;;;-6.15;80.75;99467.75;4993848;28;20062;-84
2021/12/08 07:38:13;;;;;;;32.35;13.77;;;;;;;-6.22;80.77;99463.97;4974185;28;20082;-86
2021/12/08 07:40:49;;;;;;;48.33;21.42;;;;;;;-6.32;80.48;99457.81;4955306;28;20501;-85
2021/12/08 07:43:20;;;;;;;48.30;21.02;;;;;;;-6.28;80.68;99469.72;4983960;28;20102;-83
2021/12/08 07:46:02;;;;;;;51.15;21.65;;;;;;;-6.25;80.82;99474.72;4990052;28;20061;-85
2021/12/08 07:48:37;;;;;;;39.80;18.92;;;;;;;-6.24;80.69;99465.06;4989465;28;20062;-84
2021/12/08 07:51:11;;;;;;;45.35;20.55;;;;;;;-6.24;80.57;99480.81;4985830;28;20089;-86
2021/12/08 07:53:40;;;;;;;36.97;14.77;;;;;;;-6.27;80.63;99470.56;4978849;28;20271;-86
2021/12/08 07:56:13;;;;;;;51.92;21.35;;;;;;;-6.27;80.85;99471.41;5004374;28;20453;-83
2021/12/08 07:58:49;;;;;;;51.25;21.73;;;;;;;-6.20;81.00;99474.34;4983124;28;20051;-82
2021/12/08 08:01:25;;;;;;;50.85;22.55;;;;;;;-6.13;80.81;99486.00;4983495;28;20060;-83
2021/12/08 08:03:55;;;;;;;48.85;19.92;;;;;;;-6.21;80.35;99486.63;4964246;28;20148;-84
2021/12/08 08:06:30;;;;;;;45.60;21.00;;;;;;;-6.22;80.69;99485.00;4982523;28;20042;-82
2021/12/08 08:08:57;;;;;;;48.88;22.48;;;;;;;-6.23;80.84;99479.84;4640124;28;10001312;-83
2021/12/08 08:11:33;;;;;;;42.03;17.50;;;;;;;-6.20;80.81;99493.59;4984417;28;20093;-84
2021/12/08 08:14:01;;;;;;;44.53;19.02;;;;;;;-6.19;80.81;99491.78;4989241;28;20472;-84
2021/12/08 08:16:37;;;;;;;44.70;19.67;;;;;;;-6.14;80.82;99494.88;4986375;28;20053;-83
2021/12/08 08:19:12;;;;;;;49.70;22.02;;;;;;;-6.06;80.85;99494.22;4964628;28;20440;-85
2021/12/08 08:21:47;;;;;;;48.30;22.00;;;;;;;-5.98;80.93;99489.16;4989649;28;20149;-85
2021/12/08 08:24:17;;;;;;;43.25;20.55;;;;;;;-5.93;80.81;99493.03;4989531;28;20105;-85
2021/12/08 08:26:48;;;;;;;48.10;21.95;;;;;;;-5.93;80.81;99497.47;4972632;28;20050;-86
2021/12/08 08:29:20;;;;;;;50.45;23.73;;;;;;;-5.95;80.75;99495.03;4988901;28;20050;-87
2021/12/08 08:32:00;;;;;;;50.78;22.30;;;;;;;-5.98;80.75;99489.16;4984260;28;20141;-82
2021/12/08 08:34:36;;;;;;;44.97;21.45;;;;;;;-5.94;80.52;99485.34;4980744;28;20050;-87
2021/12/08 08:37:09;;;;;;;42.97;20.80;;;;;;;-5.89;80.37;99498.91;4954054;28;20161;-85
2021/12/08 08:39:44;;;;;;;46.53;21.00;;;;;;;-6.01;80.29;99487.63;4988599;28;20093;-86
2021/12/08 08:42:13;;;;;;;;;;;;;;;-6.03;80.23;99500.06;4976559;28;20514;-88
2021/12/08 08:44:48;;;;;;;43.42;18.77;;;;;;;-6.08;80.33;99493.53;4948868;28;20278;-84
2021/12/08 08:47:26;;;;;;;50.53;21.10;;;;;;;-6.15;80.32;99498.47;4967661;28;20042;-86
2021/12/08 08:49:55;;;;;;;47.80;20.88;;;;;;;-6.08;80.44;99490.91;4984046;28;20074;-85
2021/12/08 08:52:44;;;;;;;47.72;22.92;;;;;;;-6.01;80.43;99482.38;4948825;28;20047;-84
2021/12/08 08:55:37;;;;;;;45.70;18.13;;;;;;;-6.01;79.94;99485.00;4986410;28;20113;-83
2021/12/08 08:58:11;;;;;;;48.65;21.27;;;;;;;-6.03;80.02;99480.84;4984557;28;20142;-86
2021/12/08 09:00:53;;;;;;;46.47;22.80;;;;;;;-5.99;80.21;99483.09;4976290;28;20081;-85
2021/12/08 09:03:29;;;;;;;48.78;20.58;;;;;;;-6.11;79.96;99482.28;4986875;28;20417;-84
2021/12/08 09:06:00;;;;;;;48.65;21.25;;;;;;;-6.16;79.93;99484.47;4988489;28;20057;-90
2021/12/08 09:08:30;;;;;;;47.05;21.00;;;;;;;-6.33;79.54;99500.78;4987258;28;20088;-84
2021/12/08 09:11:17;;;;;;;47.10;22.35;;;;;;;-6.34;79.97;99505.19;4962099;28;20481;-85
2021/12/08 09:14:07;;;;;;;49.13;22.25;;;;;;;-6.12;80.02;99487.69;4987194;28;20058;-86
2021/12/08 09:16:53;;;;;;;49.47;20.30;;;;;;;-5.98;79.96;99491.81;4938588;28;20090;-86
2021/12/08 09:19:35;;;;;;;50.67;22.23;;;;;;;-5.88;79.90;99490.03;4966079;28;20101;-83
2021/12/08 09:22:05;;;;;;;45.15;20.50;;;;;;;-5.86;79.62;99484.66;4987832;28;20054;-85
2021/12/08 09:25:03;;;;;;;48.10;21.48;;;;;;;-6.04;79.16;99479.19;4986890;28;20592;-85
2021/12/08 09:27:34;;;;;;;46.88;21.55;;;;;;;-6.00;79.67;99483.19;4989655;28;20050;-87
2021/12/08 09:30:07;;;;;;;72.32;23.60;;;;;;;-5.98;79.79;99489.16;4955370;28;20086;-87
2021/12/08 09:32:41;;;;;;;49.58;21.83;;;;;;;-6.02;79.63;99490.41;4986491;28;20056;-86
2021/12/08 09:35:27;;;;;;;46.75;21.67;;;;;;;-5.93;79.85;99477.28;4965524;28;20528;-83
2021/12/08 09:38:00;;;;;;;46.65;21.40;;;;;;;-5.83;79.70;99472.09;4987460;28;20042;-85
2021/12/08 09:40:37;;;;;;;46.72;20.98;;;;;;;-5.88;79.30;99469.00;4961325;28;20062;-89
2021/12/08 09:43:52;;;;;;;44.55;18.10;;;;;;;-6.11;79.02;99476.22;4949692;28;20078;-82
2021/12/08 09:46:36;;;;;;;49.40;21.13;;;;;;;-6.16;79.68;99466.06;4977440;28;20811;-86
2021/12/08 09:49:05;;;;;;;51.17;24.77;;;;;;;-5.92;79.68;99467.63;4975356;28;20050;-85
2021/12/08 09:51:37;;;;;;;41.47;18.95;;;;;;;-5.83;79.58;99471.25;4950463;28;20141;-87
2021/12/08 09:54:06;;;;;;;43.25;21.73;;;;;;;-5.95;79.54;99474.00;4981906;28;20042;-86
2021/12/08 09:56:34;;;;;;;40.47;20.05;;;;;;;-5.98;79.45;99471.59;4949181;28;20097;-84
2021/12/08 09:59:09;;;;;;;43.80;20.23;;;;;;;-5.92;79.49;99488.66;4969605;28;20057;-85
2021/12/08 10:01:43;;;;;;;41.00;19.13;;;;;;;-5.94;79.33;99495.84;4981435;28;20133;-85
2021/12/08 10:04:13;;;;;;;36.63;18.60;;;;;;;-6.01;78.78;99490.25;4976515;28;20058;-86
2021/12/08 10:06:49;;;;;;;38.30;18.80;;;;;;;-6.19;78.64;99489.16;4975179;28;20131;-87
2021/12/08 10:09:19;;;;;;;40.40;20.60;;;;;;;-6.34;78.99;99499.13;4974163;28;20789;-85
2021/12/08 10:11:48;;;;;;;42.20;19.88;;;;;;;-6.40;79.50;99492.56;4938348;29;20107;-87
2021/12/08 10:14:16;;;;;;;45.50;20.60;;;;;;;-6.51;79.68;99499.63;4918938;28;20050;-84
2021/12/08 10:16:54;;;;;;;47.33;19.25;;;;;;;-6.46;80.31;99497.47;4990330;28;20255;-89
2021/12/08 10:19:25;;;;;;;50.72;21.88;;;;;;;-6.53;80.21;99507.66;4962300;28;20802;-88
2021/12/08 10:22:06;;;;;;;43.63;17.00;;;;;;;-6.73;80.54;99484.75;4990322;28;20085;-88
2021/12/08 10:24:36;;;;;;;44.00;20.05;;;;;;;-6.76;80.57;99515.56;4956109;28;20045;-86
2021/12/08 10:27:07;;;;;;;48.30;19.98;;;;;;;-6.63;81.07;99509.34;4974846;28;20055;-86
2021/12/08 10:29:36;;;;;;;42.70;20.70;;;;;;;-6.58;81.00;99510.66;4987885;28;20047;-85
2021/12/08 10:32:05;;;;;;;42.95;18.20;;;;;;;-6.70;81.06;99501.13;4986860;28;20066;-85
2021/12/08 10:34:47;;;;;;;44.55;22.00;;;;;;;-6.68;80.95;99498.34;4968561;28;20066;-86
2021/12/08 10:37:18;;;;;;;46.83;20.92;;;;;;;-6.60;81.24;99502.06;4976904;28;20053;-88
2021/12/08 10:39:52;;;;;;;46.33;21.08;;;;;;;-6.61;81.11;99510.91;4949914;28;20093;-85
2021/12/08 10:42:29;;;;;;;51.25;22.83;;;;;;;-6.68;80.92;99517.59;4992585;28;20059;-86
2021/12/08 10:45:21;;;;;;;57.05;22.65;;;;;;;-6.73;80.72;99519.75;4982960;28;20046;-89
2021/12/08 10:47:55;;;;;;;50.25;20.70;;;;;;;-6.78;80.90;99529.78;5001942;28;20052;-88
2021/12/08 10:56:38;;;;;;;45.47;20.30;;;;;;;-7.05;80.46;99519.66;4991414;28;20058;-89
2021/12/08 10:59:42;;;;;;;50.13;22.25;;;;;;;-7.05;80.41;99530.97;4944620;29;20051;-90
2021/12/08 11:03:03;;;;;;;47.20;20.98;;;;;;;-7.03;80.59;99534.31;4939647;28;20407;-86
2021/12/08 11:05:40;;;;;;;48.60;20.95;;;;;;;-7.13;80.42;99532.53;4873857;29;20061;-87
2021/12/08 11:08:28;;;;;;;49.47;21.08;;;;;;;-7.11;80.66;99535.88;4862328;29;20059;-89
2021/12/08 11:11:04;;;;;;;48.60;20.30;;;;;;;-7.01;80.86;99542.09;4885179;29;20060;-86
2021/12/08 11:13:41;;;;;;;46.33;20.48;;;;;;;-6.94;81.02;99539.78;4877525;29;20049;-86
2021/12/08 11:16:15;;;;;;;45.72;19.88;;;;;;;-6.87;80.85;99543.63;4885514;29;20447;-85
2021/12/08 11:18:48;;;;;;;46.08;21.17;;;;;;;-6.83;80.74;99537.19;4872369;29;20064;-87
2021/12/08 11:21:24;;;;;;;47.40;20.88;;;;;;;-6.79;80.84;99543.84;4862134;29;20147;-88
2021/12/08 11:24:31;;;;;;;54.30;20.48;;;;;;;-6.85;80.97;99531.22;4881108;29;20053;-87
2021/12/08 11:27:00;;;;;;;47.97;20.80;;;;;;;-6.82;80.97;99521.28;4879156;29;20057;-87
2021/12/08 11:29:33;;;;;;;50.08;20.77;;;;;;;-6.81;80.62;99528.22;4872495;29;20068;-87
2021/12/08 11:32:04;;;;;;;47.10;21.60;;;;;;;-6.83;80.81;99539.81;4881543;29;20048;-88
2021/12/08 11:34:36;;;;;;;43.72;20.98;;;;;;;-6.81;80.76;99551.00;4895430;29;20321;-89
2021/12/08 11:37:08;;;;;;;45.03;21.58;;;;;;;-6.77;80.74;99541.94;4897557;29;20061;-87
2021/12/08 11:39:43;;;;;;;44.67;20.25;;;;;;;-6.83;80.47;99534.56;4901462;29;20112;-88
2021/12/08 11:42:35;;;;;;;45.03;19.48;;;;;;;-7.00;80.61;99513.09;4991152;28;20061;-87
2021/12/08 11:45:14;;;;;;;40.72;18.92;;;;;;;-6.94;80.42;99526.69;4988244;28;20051;-86
2021/12/08 11:47:46;;;;;;;44.60;18.30;;;;;;;-6.92;80.23;99537.91;4964865;28;20057;-87
2021/12/08 11:50:21;;;;;;;45.88;20.17;;;;;;;-6.98;79.92;99536.59;4983795;28;20093;-87
2021/12/08 11:52:51;;;;;;;43.65;19.92;;;;;;;-7.00;79.94;99535.88;4969945;28;20047;-86
2021/12/08 11:55:25;;;;;;;;;;;;;;;-7.01;80.00;99547.34;4993835;28;20042;-85
2021/12/08 11:58:01;;;;;;;39.25;17.27;;;;;;;-7.07;80.15;99537.28;4995319;28;19929;-87
2021/12/08 12:00:35;;;;;;;37.20;15.52;;;;;;;-7.12;80.11;99539.44;4994874;28;20069;-87
2021/12/08 12:03:31;;;;;;;39.47;19.92;;;;;;;-7.10;80.37;99559.34;4994678;28;20047;-87
2021/12/08 12:06:03;;;;;;;37.58;17.88;;;;;;;-7.11;80.40;99559.50;4996861;28;20042;-89
2021/12/08 12:08:35;;;;;;;48.78;20.42;;;;;;;-7.17;80.24;99557.31;4987848;28;20046;-87
2021/12/08 12:11:05;;;;;;;35.83;16.33;;;;;;;-7.19;80.40;99549.56;4981558;28;20056;-86
2021/12/08 12:13:32;;;;;;;42.53;18.15;;;;;;;-7.18;80.58;99556.50;4975699;28;20054;-86
2021/12/08 12:16:14;;;;;;;41.58;18.17;;;;;;;-7.16;80.37;99564.22;4968158;28;20153;-87
2021/12/08 12:18:44;;;;;;;42.75;16.65;;;;;;;-7.18;80.47;99559.13;4988204;28;20058;-86
2021/12/08 12:21:21;;;;;;;35.58;15.43;;;;;;;-7.24;80.04;99567.44;4991461;28;20049;-86
2021/12/08 12:24:13;;;;;;;41.58;19.33;;;;;;;-7.34;80.38;99571.72;4967445;28;20137;-84
2021/12/08 12:26:56;;;;;;;37.97;16.67;;;;;;;-7.34;80.67;99569.09;4976528;28;20065;-85
2021/12/08 12:30:02;;;;;;;36.45;17.67;;;;;;;-7.31;80.76;99567.09;4989478;28;20616;-87
2021/12/08 12:32:38;;;;;;;41.92;19.40;;;;;;;-7.31;80.79;99569.72;4979763;28;20070;-84